createdAt,value
2023-03-06T04:27:16.266Z,0.23
2023-03-06T04:32:21.519Z,0.08
2023-03-06T04:37:26.533Z,-0.02
2023-03-06T04:42:31.166Z,-0.18
2023-03-06T04:47:34.521Z,-0.14
2023-03-06T04:52:37.880Z,-0.12
2023-03-06T04:57:43.072Z,-0.26
2023-03-06T05:02:47.563Z,-0.31
2023-03-06T05:07:51.953Z,-0.28
2023-03-06T05:12:55.870Z,-0.16
2023-03-06T05:17:59.380Z,-0.10
2023-03-06T05:23:02.713Z,0.02
2023-03-06T05:28:06.926Z,-0.05
2023-03-06T05:33:11.077Z,-0.03
2023-03-06T05:38:15.946Z,0.14
2023-03-06T05:43:19.234Z,0.41
2023-03-06T05:48:22.594Z,0.50
2023-03-06T05:53:26.990Z,0.59
2023-03-06T05:58:34.756Z,0.77
2023-03-06T06:03:40.935Z,0.87
2023-03-06T06:08:44.701Z,0.90
2023-03-06T06:13:48.904Z,0.85
2023-03-06T06:18:52.331Z,0.80
2023-03-06T06:23:55.607Z,0.93
2023-03-06T06:29:00.239Z,0.88
2023-03-06T06:34:05.965Z,1.08
2023-03-06T06:39:09.952Z,1.02
2023-03-06T06:44:15.621Z,1.41
2023-03-06T06:49:18.920Z,1.08
2023-03-06T06:54:23.837Z,1.21
2023-03-06T06:59:27.251Z,1.78
2023-03-06T07:04:30.534Z,2.66
2023-03-06T07:09:33.811Z,3.57
2023-03-06T07:14:37.443Z,4.12
2023-03-06T07:19:40.795Z,4.83
2023-03-06T07:24:44.050Z,5.30
2023-03-06T07:29:48.661Z,4.75
2023-03-06T07:34:51.829Z,4.38
2023-03-06T07:39:55.117Z,4.05
2023-03-06T07:44:58.363Z,3.76
2023-03-06T07:50:04.501Z,3.38
2023-03-06T07:55:08.650Z,2.85
2023-03-06T08:00:14.376Z,2.88
2023-03-06T08:05:17.926Z,3.11
2023-03-06T08:10:21.198Z,3.16
2023-03-06T08:15:24.694Z,3.36
2023-03-06T08:20:27.959Z,3.52
2023-03-06T08:25:31.152Z,3.64
2023-03-06T08:30:34.431Z,3.84
2023-03-06T08:35:37.867Z,4.34
2023-03-06T08:40:41.532Z,4.98
2023-03-06T08:45:44.855Z,4.95
2023-03-06T08:50:48.291Z,4.59
2023-03-06T08:55:52.114Z,4.97
2023-03-06T09:00:55.715Z,5.46
2023-03-06T09:06:00.208Z,5.37
2023-03-06T09:11:03.817Z,5.96
2023-03-06T09:16:09.199Z,6.97
2023-03-06T09:21:13.315Z,7.71
2023-03-06T09:26:17.100Z,7.65
2023-03-06T09:31:20.856Z,7.58
2023-03-06T09:36:25.456Z,7.43
2023-03-06T09:41:36.299Z,6.89
2023-03-06T09:46:56.174Z,6.49
2023-03-06T09:52:58.448Z,6.65
2023-03-06T09:59:02.057Z,7.31
2023-03-06T10:04:29.113Z,6.88
2023-03-06T10:09:46.609Z,6.16
2023-03-06T10:15:17.470Z,6.41
2023-03-06T10:20:23.674Z,6.50
2023-03-06T10:26:22.544Z,6.24
2023-03-06T10:31:29.677Z,5.99
2023-03-06T10:36:33.205Z,6.37
2023-03-06T10:41:38.431Z,6.37
2023-03-06T10:46:44.283Z,5.65
2023-03-06T10:52:13.936Z,5.54
2023-03-06T10:57:27.614Z,5.57
2023-03-06T11:02:37.370Z,5.89
2023-03-06T11:08:40.155Z,5.90
2023-03-06T11:14:02.481Z,6.18
2023-03-06T11:19:21.024Z,6.13
2023-03-06T11:24:25.951Z,6.29
2023-03-06T11:29:38.450Z,6.18
2023-03-06T11:34:58.316Z,6.04
2023-03-06T11:40:18.316Z,5.96
2023-03-06T11:45:47.313Z,6.14
2023-03-06T11:51:15.341Z,6.52
2023-03-06T11:56:49.582Z,6.71
2023-03-06T12:02:06.466Z,6.60
2023-03-06T12:07:31.336Z,6.64
2023-03-06T12:12:45.456Z,6.68
2023-03-06T12:18:14.139Z,6.55
2023-03-06T12:23:36.535Z,6.81
2023-03-06T12:29:11.679Z,6.99
2023-03-06T12:34:52.138Z,6.91
2023-03-06T12:40:07.453Z,6.54
2023-03-06T12:45:34.031Z,6.70
2023-03-06T12:50:37.373Z,6.67
2023-03-06T12:55:44.490Z,6.68
2023-03-06T13:01:04.268Z,6.68
2023-03-06T13:06:44.933Z,6.52
2023-03-06T13:12:40.331Z,6.48
2023-03-06T13:17:43.602Z,6.35
2023-03-06T13:22:49.776Z,6.10
2023-03-06T13:27:53.071Z,6.36
2023-03-06T13:32:56.540Z,6.53
2023-03-06T13:38:00.822Z,6.68
2023-03-06T13:43:25.283Z,6.44
2023-03-06T13:48:47.663Z,6.13
2023-03-06T13:54:17.481Z,5.89
2023-03-06T14:00:08.360Z,6.05
2023-03-06T14:05:23.318Z,6.17
2023-03-06T14:10:27.846Z,6.21
2023-03-06T14:15:40.779Z,6.14
2023-03-06T14:20:46.704Z,6.05
2023-03-06T14:26:04.344Z,5.03
2023-03-06T14:38:29.373Z,3.94
2023-03-06T14:43:36.323Z,3.92
2023-03-06T14:48:48.000Z,3.90
2023-03-06T14:53:54.690Z,3.86
2023-03-06T14:59:05.258Z,4.01
2023-03-06T15:04:51.944Z,4.26
2023-03-06T15:09:55.588Z,4.17
2023-03-06T15:15:28.059Z,4.38
2023-03-06T15:21:17.512Z,4.46
2023-03-06T15:26:31.408Z,4.34
2023-03-06T15:31:36.928Z,4.38
2023-03-06T15:37:03.266Z,4.52
2023-03-06T15:42:30.737Z,4.53
2023-03-06T15:47:34.782Z,4.41
2023-03-06T15:52:37.988Z,4.47
2023-03-06T15:58:02.919Z,4.59
2023-03-06T16:03:06.280Z,4.56
2023-03-06T16:08:15.057Z,4.45
2023-03-06T16:13:41.691Z,4.19
2023-03-06T16:18:49.591Z,4.32
2023-03-06T16:24:13.534Z,4.44
2023-03-06T16:30:23.522Z,4.37
2023-03-06T16:35:27.495Z,4.16
2023-03-06T16:40:42.327Z,4.08
2023-03-06T16:45:50.910Z,4.04
2023-03-06T16:50:56.037Z,3.81
2023-03-06T16:56:00.223Z,3.66
2023-03-06T17:01:05.011Z,3.67
2023-03-06T17:06:20.771Z,3.63
2023-03-06T17:11:25.165Z,3.82
2023-03-06T17:16:30.017Z,3.80
2023-03-06T17:21:35.917Z,3.83
2023-03-06T17:26:40.697Z,3.86
2023-03-06T17:31:46.382Z,4.11
2023-03-06T17:36:52.704Z,3.92
2023-03-06T17:41:56.438Z,3.79
2023-03-06T17:47:00.514Z,3.58
2023-03-06T17:52:05.923Z,3.59
2023-03-06T17:57:10.109Z,3.52
2023-03-06T18:02:18.916Z,3.28
2023-03-06T18:08:01.301Z,3.15
2023-03-06T18:13:05.369Z,3.16
2023-03-06T18:18:11.457Z,3.21
2023-03-06T18:23:15.099Z,3.05
2023-03-06T18:28:19.672Z,2.87
2023-03-06T18:33:58.042Z,2.73
2023-03-06T18:39:04.009Z,2.50
2023-03-06T18:44:07.980Z,2.59
2023-03-06T18:49:20.158Z,2.63
2023-03-06T18:54:44.829Z,2.74
2023-03-06T18:59:48.831Z,2.62
2023-03-06T19:04:53.224Z,2.55
2023-03-06T19:09:59.109Z,2.46
2023-03-06T19:15:45.269Z,2.46
2023-03-06T20:28:54.409Z,2.36
2023-03-06T20:34:25.061Z,2.37
2023-03-06T20:48:30.512Z,2.28
2023-03-06T20:54:26.672Z,2.41
2023-03-06T20:59:50.620Z,2.29
2023-03-06T22:21:55.319Z,1.67
2023-03-06T22:27:11.570Z,1.44
2023-03-06T22:32:15.805Z,1.30
2023-03-06T22:37:19.604Z,1.35
2023-03-06T22:48:57.045Z,1.43
2023-03-06T22:54:01.913Z,1.42
2023-03-06T22:59:13.634Z,1.42
2023-03-06T23:04:18.449Z,1.32
2023-03-06T23:09:25.946Z,1.33
2023-03-06T23:14:51.528Z,1.33
2023-03-06T23:20:15.145Z,1.36
2023-03-06T23:25:38.248Z,1.25
2023-03-06T23:30:53.462Z,1.19
2023-03-06T23:42:28.260Z,1.26
2023-03-06T23:55:03.406Z,1.42
